Impacts METAR Board
IDs:

KMCO - Orlando Intl, FL, US

Updated at: 1200 UTC 19 Jun 2018
Potential Impact None Slight Moderate High
Time 19/00Z 19/01Z 19/02Z 19/03Z 19/04Z 19/05Z 19/06Z 19/07Z 19/08Z 19/09Z 19/10Z 19/11Z 19/12Z
Temp84 81 79 77 76 74 73 74 73 73 73 73 77
Dewpt71 71 71 70 71 70 71 72 71 71 71 71 71
Altim30.06 30.07 30.07 30.08 30.09 30.08 30.06 30.04 30.04 30.04 30.05 30.06 30.07
VIS10 10 10 10 10 10 10 10 10 10 10 10 10
CIG300 -- 300 -- -- -- -- -- -- -- -- -- --
CoverBKNSCTBKNFEWFEWFEWCLRCLRCLRCLRFEWSCTSCT
FltCatVFRVFRVFRVFRVFRVFRVFRVFRVFRVFRVFRVFRVFR
WX--------------------------
WDir909090012000000000
WSpd11 8 6 0 4 0 0 0 0 0 0 0 0
WGst-- -- -- -- -- -- -- -- -- -- -- -- --
Raw hourly METARs
KMCO 182353Z 09011KT 10SM FEW040 FEW200 BKN300 29/22 A3006 RMK AO2 SLP178 CB DSNT W-NW T02890217 10333 20289 53002
KMCO 190053Z 09008KT 10SM FEW200 SCT300 27/22 A3007 RMK AO2 SLP180 CB DSNT W-NW TCU DSNT W T02720217
KMCO 190153Z 09006KT 10SM BKN300 26/22 A3007 RMK AO2 SLP180 T02610217
KMCO 190253Z 00000KT 10SM FEW300 25/21 A3008 RMK AO2 SLP184 T02500211 53006
KMCO 190353Z 12004KT 10SM FEW250 24/22 A3009 RMK AO2 SLP189 T02440217
KMCO 190453Z 00000KT 10SM FEW250 23/21 A3008 RMK AO2 SLP183 T02330211 403330233
KMCO 190553Z 00000KT 10SM CLR 23/22 A3006 RMK AO2 SLP177 T02280217 10289 20228 58007
KMCO 190653Z 00000KT 10SM CLR 23/22 A3004 RMK AO2 SLP169 T02330222
KMCO 190753Z 00000KT 10SM CLR 23/22 A3004 RMK AO2 SLP169 T02280217
KMCO 190853Z 00000KT 10SM CLR 23/22 A3004 RMK AO2 SLP169 T02280217 55008
KMCO 190953Z 00000KT 10SM FEW250 23/22 A3005 RMK AO2 SLP173 T02280217
KMCO 191053Z 00000KT 10SM SCT250 23/22 A3006 RMK AO2 SLP178 T02280217
KMCO 191153Z 00000KT 10SM SCT250 25/22 A3007 RMK AO2 SLP180 T02500217 10256 20222 51011



Page loaded:  12:35 UTC  |   05:35 AM Pacific  |   06:35 AM Mountain  |   07:35 AM Central  |   08:35 AM Eastern

 

ADVISORIES

FORECASTS

FORECASTS

OBSERVATIONS

USER TOOLS

ABOUT US